Flight Track Log - Related Links

Times and Time Zones

All times are in EDT time to prevent confusion due to time zone crossing. See the BOE5 flight status page for this flight to view local times or setup timezone preferences in your user account.

Time Position Orientation Groundspeed Altitude Reporting Facility
EDT Latitude Longitude Course Direction KTS MPH feet Rate Location/Type
Thu 11:32:57 AM 47.3780 -122.2850 265° West 243 280 9,800  Level FlightAware ADS-B
Thu 11:33:37 AM 47.3740 -122.3490 265° West 250 288 11,000 1,568 Climbing FlightAware ADS-B
Thu 11:34:48 AM 47.3680 -122.4690 266° West 258 297 12,700 1,568 Climbing FlightAware ADS-B
Thu 11:35:28 AM 47.3650 -122.5470 267° West 262 302 13,900 1,518 Climbing FlightAware ADS-B
Thu 11:36:11 AM 47.3560 -122.6210 260° West 270 311 14,800 769 Climbing FlightAware ADS-B
Thu 11:36:46 AM 47.3400 -122.6810 249° West 269 310 14,900 64 Climbing FlightAware ADS-B
Thu 11:37:45 AM 47.3140 -122.7810 249° West 268 308 14,900  Level FlightAware ADS-B
Thu 11:38:20 AM 47.2980 -122.8430 249° West 269 310 14,900  Level FlightAware ADS-B
Thu 11:39:01 AM 47.2800 -122.9100 248° West 271 312 14,900  Level FlightAware ADS-B
Thu 11:39:41 AM 47.2620 -122.9800 249° West 270 311 14,900 632 Level FlightAware ADS-B
Thu 11:40:36 AM 47.2350 -123.0830 249° West 330 380 15,900 1,832 Climbing FlightAware ADS-B
Thu 11:41:16 AM 47.2120 -123.1710 249° West 355 409 17,800 3,176 Climbing FlightAware ADS-B
Thu 11:42:01 AM 47.1850 -123.2720 249° West 365 420 20,400 3,267 Climbing FlightAware ADS-B
Thu 11:42:46 AM 47.1550 -123.3720 246° West 374 430 22,700 3,100 Climbing FlightAware ADS-B
Thu 11:43:01 AM 47.1340 -123.4010 223° Southwest 386 444 23,500 2,727 Climbing FlightAware ADS-B
Thu 11:43:30 AM 47.0830 -123.4270 199° South 409 471 24,700 2,364 Climbing FlightAware ADS-B
Thu 11:44:07 AM 47.0150 -123.4450 190° South 419 482 26,100 2,204 Climbing FlightAware ADS-B
Thu 11:45:08 AM 46.8920 -123.4770 190° South 437 503 28,300 2,100 Climbing FlightAware ADS-B
Thu 11:45:47 AM 46.8170 -123.4970 190° South 446 513 29,600 1,920 Climbing FlightAware ADS-B
Thu 11:46:23 AM 46.7410 -123.5170 190° South 453 521 30,700 1,758 Climbing FlightAware ADS-B
Thu 11:47:26 AM 46.6110 -123.5510 190° South 465 535 32,500 1,620 Climbing FlightAware ADS-B
Thu 11:48:03 AM 46.5330 -123.5710 190° South 472 543 33,400 1,683 Climbing FlightAware ADS-B
Thu 11:48:48 AM 46.4370 -123.5960 190° South 472 543 34,800 2,000 Climbing FlightAware ADS-B
Thu 11:49:33 AM 46.3410 -123.6210 190° South 461 531 36,400 1,976 Climbing FlightAware ADS-B
Thu 11:50:10 AM 46.2600 -123.6410 190° South 459 528 37,500 1,714 Climbing FlightAware ADS-B
Thu 11:50:50 AM 46.1780 -123.6620 190° South 451 519 38,600 1,125 Climbing FlightAware ADS-B
Thu 11:51:30 AM 46.0950 -123.6840 190° South 460 529 39,000 300 Climbing FlightAware ADS-B
Thu 11:52:10 AM 46.0090 -123.7060 190° South 466 536 39,000  Level FlightAware ADS-B
Thu 11:52:50 AM 45.9260 -123.7270 190° South 465 535 39,000  Level FlightAware ADS-B
Thu 11:53:26 AM 45.8480 -123.7470 190° South 461 531 39,000  Level FlightAware ADS-B
Thu 11:54:10 AM 45.7580 -123.7690 190° South 462 532 39,000  Level FlightAware ADS-B
Thu 11:54:56 AM 45.6610 -123.7930 190° South 460 529 39,000  Level FlightAware ADS-B
Thu 11:55:36 AM 45.5770 -123.8140 190° South 459 528 39,000  Level FlightAware ADS-B
Thu 11:56:12 AM 45.5010 -123.8330 190° South 460 529 39,000  Level FlightAware ADS-B
Thu 11:56:56 AM 45.4080 -123.8570 190° South 457 526 39,000  Level FlightAware ADS-B
Thu 11:57:34 AM 45.3300 -123.8760 190° South 456 525 39,000  Level FlightAware ADS-B
Thu 11:58:14 AM 45.2470 -123.8960 190° South 458 527 39,000  Level FlightAware ADS-B
Thu 11:58:55 AM 45.1620 -123.9170 190° South 459 528 39,000  Level FlightAware ADS-B
Thu 11:59:40 AM 45.0660 -123.9410 190° South 457 526 39,000  Level FlightAware ADS-B
Thu 12:00:24 PM 44.9740 -123.9640 190° South 456 525 39,000  Level FlightAware ADS-B
Thu 12:00:58 PM 44.9040 -123.9810 190° South 457 526 39,000  Level FlightAware ADS-B
Thu 12:01:47 PM 44.8040 -124.0050 190° South 459 528 39,000  Level FlightAware ADS-B
Thu 12:02:26 PM 44.7210 -124.0260 190° South 461 531 39,000  Level FlightAware ADS-B
Thu 12:03:10 PM 44.6270 -124.0480 189° South 462 532 39,000  Level FlightAware ADS-B
Thu 12:03:46 PM 44.5510 -124.0620 187° South 468 539 39,000  Level FlightAware ADS-B
Thu 12:04:36 PM 44.4460 -124.0690 183° South 470 541 39,000  Level FlightAware ADS-B
Thu 12:05:17 PM 44.3560 -124.0750 183° South 467 537 39,000  Level FlightAware ADS-B
Thu 12:05:52 PM 44.2800 -124.0800 183° South 466 536 39,000  Level FlightAware ADS-B
Thu 12:06:33 PM 44.1920 -124.0860 183° South 468 539 39,000  Level FlightAware ADS-B
Thu 12:07:16 PM 44.0960 -124.0930 183° South 469 540 39,000  Level FlightAware ADS-B
Thu 12:07:56 PM 44.0130 -124.0980 182° South 469 540 39,000  Level FlightAware ADS-B
Thu 12:08:42 PM 43.9140 -124.1050 183° South 472 543 39,000  Level FlightAware ADS-B
Thu 12:09:21 PM 43.8250 -124.1110 183° South 474 545 39,000  Level FlightAware ADS-B
Thu 12:10:04 PM 43.7350 -124.1170 183° South 473 544 39,000  Level FlightAware ADS-B
Thu 12:10:57 PM 43.6280 -124.1230 182° South 473 544 39,000  Level FlightAware ADS-B
Thu 12:11:36 PM 43.5540 -124.1280 183° South 475 547 39,000  Level FlightAware ADS-B
Thu 12:12:15 PM 43.4430 -124.1360 183° South 478 550 39,000  Level FlightAware ADS-B
Thu 12:12:57 PM 43.3520 -124.1410 182° South 478 550 39,000  Level FlightAware ADS-B
Thu 12:13:49 PM 43.2450 -124.1480 183° South 479 551 39,000  Level FlightAware ADS-B
Thu 12:14:37 PM 43.1550 -124.1520 182° South 479 551 39,000  Level FlightAware ADS-B
Thu 12:15:14 PM 43.0850 -124.1550 182° South 479 551 39,000  Level FlightAware ADS-B
Thu 12:16:02 PM 42.9950 -124.1600 182° South 479 551 39,000  Level FlightAware ADS-B
Thu 12:16:40 PM 42.9230 -124.1630 182° South 479 551 39,000  Level FlightAware ADS-B
Thu 12:17:28 PM 42.8330 -124.1670 182° South 479 551 39,000  Level FlightAware ADS-B
Thu 12:18:05 PM 42.7630 -124.1710 182° South 479 551 39,000  Level FlightAware ADS-B
Thu 12:18:42 PM 42.6930 -124.1740 182° South 479 551 39,000  Level FlightAware ADS-B
Thu 12:19:31 PM 42.6010 -124.1780 182° South 479 551 39,000  Level FlightAware ADS-B
Thu 12:20:08 PM 42.5310 -124.1820 182° South 479 551 39,000  Level FlightAware ADS-B
Thu 12:20:44 PM 42.4640 -124.1850 182° South 479 551 39,000  Level FlightAware ADS-B
Thu 12:21:32 PM 42.3730 -124.1890 182° South 479 551 39,000  Level FlightAware ADS-B
Thu 12:22:08 PM 42.3060 -124.1920 182° South 479 551 39,000  Level FlightAware ADS-B
Thu 12:23:09 PM 42.1910 -124.1980 182° South 479 551 39,000  Level FlightAware ADS-B
Thu 12:23:45 PM 41.9258 -124.1919 182° South 474 545 39,000  Level Seattle Center
Thu 12:29:42 PM 41.1450 -124.2190 182° South 467 537 39,000  Level FlightAware ADS-B
Thu 12:30:22 PM 41.0590 -124.2220 182° South 465 535 39,000  Level FlightAware ADS-B
Thu 12:31:16 PM 40.9440 -124.2350 185° South 451 519 39,000  Level FlightAware ADS-B
Thu 12:32:09 PM 40.8600 -124.2990 210° Southwest 457 526 39,000  Level FlightAware ADS-B
Thu 12:32:47 PM 40.8020 -124.3470 212° Southwest 457 526 39,000  Level FlightAware ADS-B
Thu 12:33:23 PM 40.7470 -124.3920 212° Southwest 457 526 39,000  Level FlightAware ADS-B
Thu 12:34:37 PM 40.6340 -124.4850 212° Southwest 457 526 39,000  Level FlightAware ADS-B
Thu 12:35:14 PM 40.5780 -124.5320 213° Southwest 457 526 39,000  Level FlightAware ADS-B
Thu 12:36:27 PM 40.4670 -124.6230 212° Southwest 457 526 39,000  Level FlightAware ADS-B
Thu 12:37:28 PM 40.3740 -124.7000 212° Southwest 457 526 39,000  Level FlightAware ADS-B
Thu 12:38:04 PM 40.3190 -124.7450 212° Southwest 457 526 39,000  Level FlightAware ADS-B
Thu 12:39:02 PM 41.6228 -124.4742 212° Southwest 511 588 39,000 -50 Level Seattle Center
Thu 12:40:03 PM 41.7622 -124.4569 North 508 585 38,900  Descending Seattle Center
Thu 12:41:04 PM 41.9011 -124.4414 North 504 580 39,000 49 Climbing Seattle Center
Thu 12:42:06 PM 42.0425 -124.4197 North 507 583 39,000  Level Seattle Center
Thu 12:43:07 PM 42.2108 -124.3969 North 507 583 39,000  Level Seattle Center
Thu 12:49:00 PM 43.0470 -124.2830 North 513 590 39,000  Level FlightAware ADS-B
Thu 12:49:40 PM 43.1440 -124.2690 North 513 590 39,000  Level FlightAware ADS-B
Thu 12:50:19 PM 43.2350 -124.2560 North 514 592 39,000  Level FlightAware ADS-B
Thu 12:51:02 PM 43.3370 -124.2410 North 515 593 39,000  Level FlightAware ADS-B
Thu 12:51:42 PM 43.4330 -124.2280 North 516 594 39,000  Level FlightAware ADS-B
Thu 12:52:20 PM 43.5250 -124.2140 North 518 596 39,000  Level FlightAware ADS-B
Thu 12:53:01 PM 43.6200 -124.2010 North 518 596 39,000  Level FlightAware ADS-B
Thu 12:53:43 PM 43.7190 -124.1870 North 519 597 39,000  Level FlightAware ADS-B
Thu 12:54:19 PM 43.8070 -124.1740 North 518 596 39,000  Level FlightAware ADS-B
Thu 12:55:05 PM 43.9170 -124.1580 North 520 598 39,000  Level FlightAware ADS-B
Thu 12:55:49 PM 44.0240 -124.1420 North 522 601 39,000  Level FlightAware ADS-B
Thu 12:56:29 PM 44.1170 -124.1290 North 522 601 39,000  Level FlightAware ADS-B
Thu 12:57:07 PM 44.2080 -124.1150 North 522 601 39,000  Level FlightAware ADS-B
Thu 12:57:42 PM 44.2880 -124.0880 14° North 528 608 39,000  Level FlightAware ADS-B
Thu 12:57:58 PM 44.3190 -124.0560 36° Northeast 531 611 39,000  Level FlightAware ADS-B
Thu 12:58:14 PM 44.3440 -124.0050 56° Northeast 530 610 39,000  Level FlightAware ADS-B
Thu 12:58:30 PM 44.3530 -123.9540 76° East 524 603 39,000  Level FlightAware ADS-B
Thu 12:58:58 PM 44.3410 -123.8640 101° East 508 585 39,000  Level FlightAware ADS-B
Thu 12:59:10 PM 44.3240 -123.8300 125° Southeast 497 572 39,000  Level FlightAware ADS-B
Thu 12:59:26 PM 44.2970 -123.8020 143° Southeast 484 557 39,000  Level FlightAware ADS-B
Thu 12:59:38 PM 44.2730 -123.7890 159° South 475 547 39,000  Level FlightAware ADS-B
Thu 01:00:37 PM 44.1440 -123.7840 178° South 467 537 39,000  Level FlightAware ADS-B
Thu 01:01:16 PM 44.0590 -123.7950 185° South 466 536 39,000  Level FlightAware ADS-B
Thu 01:01:58 PM 43.9690 -123.8070 185° South 465 535 39,000  Level FlightAware ADS-B
Thu 01:02:32 PM 43.8970 -123.8180 186° South 467 537 39,000  Level FlightAware ADS-B
Thu 01:03:17 PM 43.8040 -123.8300 185° South 468 539 39,000  Level FlightAware ADS-B
Thu 01:04:00 PM 43.7090 -123.8430 186° South 470 541 39,000  Level FlightAware ADS-B
Thu 01:04:32 PM 43.6380 -123.8530 186° South 470 541 39,000  Level FlightAware ADS-B
Thu 01:05:16 PM 43.5470 -123.8650 185° South 470 541 39,000  Level FlightAware ADS-B
Thu 01:06:00 PM 43.4490 -123.8780 186° South 471 542 39,000  Level FlightAware ADS-B
Thu 01:06:40 PM 43.3610 -123.8900 186° South 472 543 39,000  Level FlightAware ADS-B
Thu 01:07:22 PM 43.2690 -123.9020 185° South 470 541 39,000  Level FlightAware ADS-B
Thu 01:08:00 PM 43.1890 -123.9130 186° South 470 541 39,000  Level FlightAware ADS-B
Thu 01:08:48 PM 43.0840 -123.9270 186° South 474 545 39,000  Level FlightAware ADS-B
Thu 01:09:18 PM 43.0250 -123.9350 186° South 474 545 39,000  Level FlightAware ADS-B
Thu 01:10:14 PM 42.9060 -123.9500 185° South 473 544 39,000  Level FlightAware ADS-B
Thu 01:10:58 PM 42.8130 -123.9630 186° South 473 544 39,000  Level FlightAware ADS-B
Thu 01:11:35 PM 42.7260 -123.9740 185° South 474 545 39,000  Level FlightAware ADS-B
Thu 01:12:32 PM 42.6460 -123.9850 186° South 474 545 39,000  Level FlightAware ADS-B
Thu 01:13:22 PM 42.5540 -123.9980 186° South 474 545 39,000  Level FlightAware ADS-B
Thu 01:13:58 PM 42.4870 -124.0080 186° South 474 545 39,000  Level FlightAware ADS-B
Thu 01:14:35 PM 42.4180 -124.0180 186° South 474 545 39,000  Level FlightAware ADS-B
Thu 01:15:24 PM 42.3280 -124.0310 186° South 474 545 39,000  Level FlightAware ADS-B
Thu 01:16:00 PM 42.2610 -124.0400 186° South 474 545 39,000  Level FlightAware ADS-B
Thu 01:16:51 PM 42.1660 -124.0540 186° South 474 545 39,000  Level FlightAware ADS-B
Thu 01:17:27 PM 42.1000 -124.0630 186° South 474 545 39,000  Level FlightAware ADS-B
Thu 01:18:27 PM 41.9880 -124.0790 186° South 474 545 39,000  Level FlightAware ADS-B
Thu 01:19:15 PM 41.8990 -124.0910 186° South 474 545 39,000  Level FlightAware ADS-B
Thu 01:19:52 PM 41.8310 -124.1010 186° South 474 545 39,000  Level FlightAware ADS-B
Thu 01:20:40 PM 41.7420 -124.1140 186° South 474 545 39,000  Level FlightAware ADS-B
Thu 01:21:17 PM 41.6730 -124.1230 186° South 474 545 39,000  Level FlightAware ADS-B
Thu 01:22:19 PM 41.3250 -124.1530 184° South 465 535 39,000  Level FlightAware ADS-B
Thu 01:22:58 PM 41.2320 -124.1640 185° South 471 542 39,000  Level FlightAware ADS-B
Thu 01:23:39 PM 41.1430 -124.1740 185° South 469 540 39,000  Level FlightAware ADS-B
Thu 01:24:19 PM 41.0570 -124.1840 185° South 468 539 39,000  Level FlightAware ADS-B
Thu 01:25:21 PM 40.9370 -124.1960 184° South 468 539 39,000  Level FlightAware ADS-B
Thu 01:25:57 PM 40.8710 -124.2020 184° South 468 539 39,000  Level FlightAware ADS-B
Thu 01:26:46 PM 40.7810 -124.2110 184° South 468 539 39,000  Level FlightAware ADS-B
Thu 01:27:22 PM 40.7150 -124.2170 184° South 468 539 39,000  Level FlightAware ADS-B
Thu 01:28:10 PM 40.6270 -124.2250 184° South 468 539 39,000  Level FlightAware ADS-B
Thu 01:28:47 PM 40.5590 -124.2310 184° South 468 539 39,000  Level FlightAware ADS-B
Thu 01:29:33 PM 40.4750 -124.2390 184° South 468 539 39,000  Level FlightAware ADS-B
Thu 01:30:11 PM 40.4050 -124.2450 184° South 468 539 39,000  Level FlightAware ADS-B
Thu 01:31:11 PM 40.2950 -124.2550 184° South 468 539 39,000  Level FlightAware ADS-B
Thu 01:31:47 PM 40.2290 -124.2610 184° South 468 539 39,000  Level FlightAware ADS-B
Thu 01:32:35 PM 40.1400 -124.2690 184° South 468 539 39,000  Level FlightAware ADS-B
Thu 01:33:07 PM 41.6289 -124.3747 10° North 509 586 39,000  Level Seattle Center
Thu 01:33:12 PM 40.0720 -124.2760 185° South 468 539 39,000  Level FlightAware ADS-B
Thu 01:34:00 PM 39.9840 -124.2840 184° South 468 539 39,000  Level FlightAware ADS-B
Thu 01:34:08 PM 41.7703 -124.3606 North 510 587 39,000  Level Seattle Center
Thu 01:34:36 PM 39.9180 -124.2900 184° South 468 539 39,000 -97 Level FlightAware ADS-B
Thu 01:35:10 PM 41.9128 -124.3456 North 511 588 38,900  Descending Seattle Center
Thu 01:36:11 PM 42.0550 -124.3322 North 512 589 39,000 49 Climbing Seattle Center
Thu 01:37:12 PM 42.1981 -124.3158 North 514 592 39,000  Level Seattle Center
Thu 01:39:00 PM 40.8446 -124.0738 10° North  Level Estimated
Thu 01:43:24 PM 43.0960 -124.2230 North 518 596 39,000  Level FlightAware ADS-B
Thu 01:44:05 PM 43.1980 -124.2120 North 520 598 39,000  Level FlightAware ADS-B
Thu 01:44:47 PM 43.2990 -124.2010 North 519 597 39,000  Level FlightAware ADS-B
Thu 01:45:27 PM 43.3950 -124.1910 North 518 596 39,000  Level FlightAware ADS-B
Thu 01:46:07 PM 43.4850 -124.1810 North 516 594 39,000  Level FlightAware ADS-B
Thu 01:46:47 PM 43.5870 -124.1700 North 515 593 39,000  Level FlightAware ADS-B
Thu 01:47:29 PM 43.6860 -124.1590 North 517 595 39,000  Level FlightAware ADS-B
Thu 01:48:05 PM 43.7700 -124.1500 North 518 596 39,000  Level FlightAware ADS-B
Thu 01:48:55 PM 43.8920 -124.1320 North 523 602 39,000  Level FlightAware ADS-B
Thu 01:49:34 PM 43.9820 -124.1010 14° North 524 603 39,000  Level FlightAware ADS-B
Thu 01:50:15 PM 44.0770 -124.0650 15° North 521 600 39,000  Level FlightAware ADS-B
Thu 01:50:58 PM 44.1770 -124.0270 15° North 521 600 39,000  Level FlightAware ADS-B
Thu 01:51:37 PM 44.2640 -123.9930 16° North 521 600 39,000  Level FlightAware ADS-B
Thu 01:52:15 PM 44.3580 -123.9570 15° North 521 600 39,000  Level FlightAware ADS-B
Thu 01:53:00 PM 44.4600 -123.9180 15° North 521 600 39,000  Level FlightAware ADS-B
Thu 01:53:39 PM 44.5520 -123.8820 16° North 521 600 39,000  Level FlightAware ADS-B
Thu 01:54:17 PM 44.6420 -123.8470 15° North 523 602 39,000  Level FlightAware ADS-B
Thu 01:55:03 PM 44.7470 -123.8070 15° North 524 603 39,000  Level FlightAware ADS-B
Thu 01:55:47 PM 44.8510 -123.7660 16° North 525 604 39,000  Level FlightAware ADS-B
Thu 01:56:27 PM 44.9450 -123.7290 16° North 525 604 39,000  Level FlightAware ADS-B
Thu 01:57:07 PM 45.0370 -123.6930 15° North 526 605 39,000  Level FlightAware ADS-B
Thu 01:57:39 PM 45.1130 -123.6630 16° North 526 605 39,000  Level FlightAware ADS-B
Thu 01:58:19 PM 45.2070 -123.6260 15° North 526 605 39,000 -73 Level FlightAware ADS-B
Thu 01:59:01 PM 45.3070 -123.6100 North 519 597 38,900 -1,071 Descending FlightAware ADS-B
Thu 01:59:43 PM 45.4070 -123.6080 North 514 592 37,500 -2,100 Descending FlightAware ADS-B
Thu 02:00:21 PM 45.4960 -123.6070 360° North 508 585 36,100 -2,077 Descending FlightAware ADS-B
Thu 02:01:01 PM 45.5900 -123.6070 360° North 498 573 34,800 -2,500 Descending FlightAware ADS-B
Thu 02:01:45 PM 45.6910 -123.6060 360° North 500 575 32,600 -2,929 Descending FlightAware ADS-B
Thu 02:02:25 PM 45.7850 -123.6050 360° North 498 573 30,700 -2,561 Descending FlightAware ADS-B
Thu 02:03:07 PM 45.8790 -123.6030 North 484 557 29,100 -2,345 Descending FlightAware ADS-B
Thu 02:03:52 PM 45.9770 -123.6020 360° North 473 544 27,300 -2,259 Descending FlightAware ADS-B
Thu 02:04:32 PM 46.0640 -123.5990 North 458 527 25,900 -2,195 Descending FlightAware ADS-B
Thu 02:05:14 PM 46.1510 -123.5960 North 451 519 24,300 -1,390 Descending FlightAware ADS-B
Thu 02:05:54 PM 46.2350 -123.5930 North 453 521 24,000 -214 Descending FlightAware ADS-B
Thu 02:06:38 PM 46.3250 -123.5880 North 456 525 24,000  Level FlightAware ADS-B
Thu 02:07:19 PM 46.4090 -123.5410 21° North 471 542 24,000 -141 Level FlightAware ADS-B
Thu 02:08:03 PM 46.4850 -123.4560 38° Northeast 470 541 23,800 -714 Descending FlightAware ADS-B
Thu 02:08:43 PM 46.5540 -123.3780 38° Northeast 470 541 23,000 -975 Descending FlightAware ADS-B
Thu 02:09:23 PM 46.6180 -123.3060 38° Northeast 464 534 22,500 -468 Descending FlightAware ADS-B
Thu 02:10:00 PM 46.6700 -123.2470 38° Northeast 460 529 22,400 -1,341 Descending FlightAware ADS-B
Thu 02:10:48 PM 46.7530 -123.1520 38° Northeast 428 493 20,600 -1,435 Descending FlightAware ADS-B
Thu 02:11:32 PM 46.8170 -123.0790 38° Northeast 419 482 20,200 -1,579 Descending FlightAware ADS-B
Thu 02:12:23 PM 46.8950 -122.9900 38° Northeast 400 460 18,100 -1,696 Descending FlightAware ADS-B
Thu 02:13:04 PM 46.9500 -122.9270 38° Northeast 397 457 17,600 -1,440 Descending FlightAware ADS-B
Thu 02:13:38 PM 47.0030 -122.8640 39° Northeast 397 457 16,300 -2,838 Descending FlightAware ADS-B
Thu 02:14:18 PM 47.0550 -122.7960 42° Northeast 367 422 14,100 -2,138 Descending FlightAware ADS-B
Thu 02:15:05 PM 47.1030 -122.7340 41° Northeast 352 405 13,200 -2,096 Descending FlightAware ADS-B
Thu 02:15:41 PM 47.1540 -122.6680 41° Northeast 336 387 11,200 -2,132 Descending FlightAware ADS-B
Thu 02:16:21 PM 47.2000 -122.6110 40° Northeast 306 352 10,500 -1,385 Descending FlightAware ADS-B
Thu 02:16:46 PM 47.2250 -122.5770 43° Northeast 294 338 9,700 -2,040 Descending FlightAware ADS-B
Thu 02:17:11 PM 47.2500 -122.5460 40° Northeast 286 329 8,800 -1,800 Descending FlightAware ADS-B
Thu 02:17:26 PM 47.2650 -122.5260 42° Northeast 287 330 8,500 -1,200 Descending FlightAware ADS-B
Thu 02:17:56 PM 47.2950 -122.4880 41° Northeast 280 322 7,900 -800 Descending FlightAware ADS-B
Thu 02:18:11 PM 47.3060 -122.4740 41° Northeast 279 321 7,900 -222 Level FlightAware ADS-B
Thu 02:18:23 PM 47.3210 -122.4630 26° Northeast 270 311 7,800 -146 Descending FlightAware ADS-B
Thu 02:18:52 PM 47.3590 -122.4590 North 267 307 7,800  Level FlightAware ADS-B
Thu 02:19:03 PM 47.3720 -122.4580 North 257 296 7,800 -150 Level FlightAware ADS-B
Thu 02:19:32 PM 47.4030 -122.4570 North 233 268 7,700 -111 Descending FlightAware ADS-B
Thu 02:19:57 PM 47.4260 -122.4570 360° North 233 268 7,700 -2,550 Level FlightAware ADS-B
Thu 02:20:52 PM 47.4910 -122.4590 359° North 247 284 4,300 -3,388 Descending FlightAware ADS-B
Thu 02:21:22 PM 47.5260 -122.4630 356° North 257 296 2,900 -1,562 Descending FlightAware ADS-B
Thu 02:22:05 PM 47.5720 -122.4780 348° North 250 288 2,400 -292 Descending FlightAware ADS-B
Thu 02:23:57 PM 47.6730 -122.5170 345° North 2,000 -169 Descending FlightAware ADS-B
Thu 02:24:27 PM 47.6900 -122.4760 58° Northeast 232 267 2,000  Level FlightAware ADS-B
Thu 02:24:54 PM 47.6870 -122.4440 98° East 183 211 2,000  Level FlightAware ADS-B
Thu 02:25:42 PM 47.6590 -122.4110 142° Southeast 175 201 2,000  Level FlightAware ADS-B
Thu 02:26:07 PM 47.6390 -122.3950 152° Southeast 154 177 2,000  Level FlightAware ADS-B
Thu 02:26:17 PM 47.6350 -122.3920 153° Southeast 153 176 2,000 -600 Level FlightAware ADS-B
Thu 02:26:47 PM 47.6170 -122.3760 149° Southeast 147 169 1,600 -800 Descending FlightAware ADS-B
Thu 02:27:17 PM 47.5980 -122.3600 150° Southeast 144 166 1,200 -764 Descending FlightAware ADS-B
Thu 02:27:42 PM 47.5860 -122.3500 151° Southeast 137 158 900 -750 Descending FlightAware ADS-B
Thu 02:27:57 PM 47.5770 -122.3420 149° Southeast 137 158 700 -250 Descending FlightAware ADS-B
Thu 02:28:30 PM 47.5620 -122.3300 152° Southeast 137 158 700 -434 Level FlightAware ADS-B
Thu 02:29:20 PM 47.5325 -122.3050 152° Southeast 138 159 100 -720 Descending Seattle Center

Login

Don't have an account? Register now (free) for customized features, flight alerts, and more!